createdAt,value
2023-02-11T00:02:11.705Z,60.38
2023-02-11T00:04:38.092Z,59.65
2023-02-11T00:07:11.292Z,75.22
2023-02-11T00:09:44.292Z,68.00
2023-02-11T00:12:10.603Z,67.88
2023-02-11T00:14:43.306Z,69.13
2023-02-11T00:17:16.284Z,67.70
2023-02-11T00:19:42.583Z,72.07
2023-02-11T00:22:15.303Z,74.40
2023-02-11T00:24:41.613Z,79.43
2023-02-11T00:27:14.327Z,78.35
2023-02-11T00:29:40.652Z,69.38
2023-02-11T00:32:15.322Z,71.32
2023-02-11T00:34:48.329Z,72.70
2023-02-11T00:37:21.364Z,76.25
2023-02-11T00:39:49.893Z,68.50
2023-02-11T00:42:22.305Z,96.43
2023-02-11T00:44:55.363Z,76.65
2023-02-11T00:47:21.755Z,76.43
2023-02-11T00:49:54.411Z,71.03
2023-02-11T00:52:27.362Z,72.78
2023-02-11T00:54:53.756Z,70.57
2023-02-11T00:57:26.383Z,61.25
2023-02-11T00:59:59.349Z,65.82
2023-02-11T01:02:32.351Z,67.70
2023-02-11T01:05:06.440Z,70.90
2023-02-11T01:07:53.355Z,72.97
2023-02-11T01:10:26.368Z,68.63
2023-02-11T01:12:52.715Z,69.78
2023-02-11T01:15:26.421Z,73.15
2023-02-11T01:17:52.781Z,70.88
2023-02-11T01:20:30.396Z,71.95
2023-02-11T01:22:56.922Z,80.93
2023-02-11T01:25:32.802Z,100.95
2023-02-11T01:28:05.437Z,77.95
2023-02-11T01:30:32.012Z,77.97
2023-02-11T01:32:58.406Z,70.72
2023-02-11T01:35:32.402Z,64.50
2023-02-11T01:37:58.766Z,73.43
2023-02-11T01:40:31.443Z,79.18
2023-02-11T01:42:57.814Z,71.50
2023-02-11T01:46:03.493Z,65.53
2023-02-11T01:48:38.164Z,63.80
2023-02-11T01:51:28.461Z,77.80
2023-02-11T01:54:15.149Z,74.55
2023-02-11T01:57:11.512Z,79.40
2023-02-11T01:59:45.704Z,74.93
2023-02-11T02:02:21.459Z,68.60
2023-02-11T02:04:55.519Z,69.15
2023-02-11T02:07:40.469Z,67.95
2023-02-11T02:10:20.750Z,71.72
2023-02-11T02:12:53.473Z,72.07
2023-02-11T02:15:30.506Z,73.00
2023-02-11T02:18:06.507Z,68.80
2023-02-11T02:23:21.502Z,68.45
2023-02-11T02:26:04.300Z,74.57
2023-02-11T02:28:59.543Z,75.32
2023-02-11T02:32:26.529Z,64.60
2023-02-11T02:35:21.591Z,60.05
2023-02-11T02:37:56.629Z,56.35
2023-02-11T02:40:40.544Z,65.45
2023-02-11T02:43:16.543Z,82.80
2023-02-11T02:48:38.552Z,75.15
2023-02-11T02:52:07.548Z,72.03
2023-02-11T02:54:57.422Z,66.35
2023-02-11T02:57:33.571Z,70.35
2023-02-11T03:00:42.200Z,65.47
2023-02-11T03:03:23.601Z,67.85
2023-02-11T03:06:02.083Z,62.80
2023-02-11T03:08:54.585Z,75.95
2023-02-11T03:11:29.039Z,72.85
2023-02-11T03:14:03.570Z,70.97
2023-02-11T03:16:30.798Z,71.97
2023-02-11T03:19:13.586Z,69.90
2023-02-11T03:21:43.546Z,69.40
2023-02-11T03:24:22.604Z,64.00
2023-02-11T03:26:59.631Z,64.13
2023-02-11T03:29:58.609Z,66.97
2023-02-11T03:32:35.604Z,73.72
2023-02-11T03:35:14.613Z,69.70
2023-02-11T03:37:48.558Z,71.68
2023-02-11T03:40:26.769Z,64.18
2023-02-11T03:42:58.265Z,79.53
2023-02-11T03:45:29.396Z,86.88
2023-02-11T03:48:15.679Z,75.72
2023-02-11T03:50:50.647Z,76.88
2023-02-11T03:53:24.734Z,66.70
2023-02-11T03:56:00.659Z,65.35
2023-02-11T03:58:33.661Z,70.05
2023-02-11T04:01:08.733Z,65.78
2023-02-11T04:03:35.636Z,75.05
2023-02-11T04:06:08.723Z,73.28
2023-02-11T04:08:41.778Z,67.25
2023-02-11T04:11:21.700Z,65.47
2023-02-11T04:13:48.024Z,58.80
2023-02-11T04:16:20.795Z,69.63
2023-02-11T04:18:53.718Z,58.85
2023-02-11T04:21:20.088Z,71.70
2023-02-11T04:23:46.472Z,66.40
2023-02-11T04:26:19.710Z,63.22
2023-02-11T04:28:52.698Z,74.03
2023-02-11T04:31:19.107Z,73.55
2023-02-11T04:33:52.739Z,68.03
2023-02-11T04:36:19.073Z,72.93
2023-02-11T04:38:52.757Z,71.43
2023-02-11T04:41:19.096Z,68.57
2023-02-11T04:43:45.630Z,64.18
2023-02-11T04:46:18.915Z,73.38
2023-02-11T04:48:45.287Z,62.63
2023-02-11T04:51:11.669Z,71.45
2023-02-11T04:53:44.838Z,71.97
2023-02-11T04:56:11.241Z,82.70
2023-02-11T04:58:37.559Z,78.15
2023-02-11T05:01:19.848Z,78.25
2023-02-11T05:03:46.248Z,96.75
2023-02-11T05:06:19.798Z,84.35
2023-02-11T05:08:54.880Z,75.05
2023-02-11T05:11:34.797Z,74.70
2023-02-11T05:14:01.173Z,76.65
2023-02-11T05:16:34.790Z,79.63
2023-02-11T05:19:01.191Z,76.20
2023-02-11T05:21:33.830Z,70.82
2023-02-11T05:24:06.802Z,77.97
2023-02-11T05:26:39.810Z,80.80
2023-02-11T05:29:06.150Z,79.45
2023-02-11T05:31:33.184Z,84.72
2023-02-11T05:34:05.827Z,101.45
2023-02-11T05:36:33.477Z,74.85
2023-02-11T05:38:59.908Z,70.53
2023-02-11T05:41:32.823Z,73.22
2023-02-11T05:43:59.162Z,69.43
2023-02-11T05:46:31.934Z,69.63
2023-02-11T05:48:58.452Z,77.22
2023-02-11T05:51:31.852Z,73.65
2023-02-11T05:53:58.218Z,72.90
2023-02-11T05:56:30.873Z,72.18
2023-02-11T05:58:59.747Z,70.50
2023-02-11T06:01:34.857Z,75.90
2023-02-11T06:04:01.297Z,75.18
2023-02-11T06:06:27.747Z,65.60
2023-02-11T06:09:00.861Z,79.97
2023-02-11T06:11:33.925Z,78.75
2023-02-11T06:14:07.917Z,62.95
2023-02-11T06:16:34.249Z,72.68
2023-02-11T06:19:06.900Z,67.38
2023-02-11T06:21:43.491Z,74.45
2023-02-11T06:24:28.565Z,73.72
2023-02-11T06:27:11.893Z,77.70
2023-02-11T06:29:44.926Z,72.18
2023-02-11T06:32:39.423Z,79.72
2023-02-11T06:35:12.332Z,72.03
2023-02-11T06:37:39.620Z,78.85
2023-02-11T06:40:12.951Z,74.15
2023-02-11T06:42:40.387Z,75.63
2023-02-11T06:45:15.935Z,70.65
2023-02-11T06:47:48.957Z,74.78
2023-02-11T06:50:21.985Z,68.47
2023-02-11T06:52:48.331Z,86.55
2023-02-11T06:55:21.646Z,76.80
2023-02-11T06:57:48.016Z,67.70
2023-02-11T07:00:21.962Z,75.05
2023-02-11T07:02:48.298Z,73.55
2023-02-11T07:05:14.729Z,83.65
2023-02-11T07:07:48.003Z,75.47
2023-02-11T07:10:21.322Z,126.07
2023-02-11T07:12:47.625Z,95.63
2023-02-11T07:15:21.057Z,78.95
2023-02-11T07:17:47.363Z,76.32
2023-02-11T07:20:14.905Z,62.85
2023-02-11T07:22:48.021Z,76.68
2023-02-11T07:25:14.415Z,73.10
2023-02-11T07:27:46.989Z,75.93
2023-02-11T07:30:21.028Z,75.90
2023-02-11T07:32:47.456Z,64.25
2023-02-11T07:35:21.020Z,61.40
2023-02-11T07:37:47.324Z,67.28
2023-02-11T07:40:20.008Z,66.13
2023-02-11T07:42:46.370Z,60.22
2023-02-11T07:45:13.952Z,66.00
2023-02-11T07:47:49.073Z,57.72
2023-02-11T07:50:24.029Z,66.78
2023-02-11T07:52:50.359Z,64.63
2023-02-11T07:55:23.050Z,67.60
2023-02-11T07:57:49.464Z,65.22
2023-02-11T08:00:23.070Z,56.63
2023-02-11T08:02:49.412Z,56.33
2023-02-11T08:05:15.809Z,61.17
2023-02-11T08:07:49.116Z,64.07
2023-02-11T08:10:30.081Z,56.45
2023-02-11T08:12:56.516Z,63.90
2023-02-11T08:15:23.025Z,55.13
2023-02-11T08:17:56.080Z,59.30
2023-02-11T08:20:22.401Z,52.72
2023-02-11T08:22:55.095Z,53.05
2023-02-11T08:25:28.080Z,55.25
2023-02-11T08:27:54.417Z,54.17
2023-02-11T08:30:27.661Z,58.05
2023-02-11T08:32:54.125Z,53.72
2023-02-11T08:35:27.151Z,55.95
2023-02-11T08:37:53.592Z,49.67
2023-02-11T08:40:27.141Z,49.90
2023-02-11T08:43:00.164Z,51.65
2023-02-11T08:45:26.467Z,47.90
2023-02-11T08:47:59.303Z,50.40
2023-02-11T08:50:28.265Z,47.38
2023-02-11T08:52:55.132Z,49.88
2023-02-11T08:55:28.255Z,51.63
2023-02-11T08:57:54.550Z,44.42
2023-02-11T09:00:21.283Z,53.42
2023-02-11T09:02:54.178Z,43.83
2023-02-11T09:05:20.549Z,50.40
2023-02-11T09:07:53.171Z,48.88
2023-02-11T09:10:41.165Z,45.30
2023-02-11T09:13:14.200Z,44.53
2023-02-11T09:15:40.569Z,42.58
2023-02-11T09:18:14.189Z,40.45
2023-02-11T09:20:47.179Z,45.08
2023-02-11T09:23:13.725Z,37.60
2023-02-11T09:25:47.207Z,40.63
2023-02-11T09:28:13.595Z,38.72
2023-02-11T09:30:46.306Z,36.35
2023-02-11T09:33:12.700Z,32.88
2023-02-11T09:35:45.211Z,38.20
2023-02-11T09:38:18.245Z,39.42
2023-02-11T09:40:45.606Z,35.40
2023-02-11T09:43:27.346Z,34.15
2023-02-11T09:45:55.671Z,30.73
2023-02-11T09:48:23.054Z,32.47
2023-02-11T09:51:00.215Z,32.17
2023-02-11T09:53:29.504Z,40.10
2023-02-11T09:56:06.224Z,35.88
2023-02-11T09:58:42.276Z,33.00
2023-02-11T10:01:41.662Z,36.42
2023-02-11T10:04:50.333Z,33.63
2023-02-11T10:07:35.952Z,30.10
2023-02-11T10:10:47.305Z,31.42
2023-02-11T10:13:45.382Z,33.92
2023-02-11T10:16:45.403Z,91.00
2023-02-11T10:20:10.245Z,36.55
2023-02-11T10:22:53.633Z,146.13
2023-02-11T10:25:27.763Z,65.38
2023-02-11T10:28:04.320Z,69.65
2023-02-11T10:30:36.056Z,43.58
2023-02-11T10:33:26.335Z,47.30
2023-02-11T10:35:52.909Z,32.63
2023-02-11T10:38:19.415Z,33.17
2023-02-11T10:40:52.626Z,29.75
2023-02-11T10:43:30.462Z,33.03
2023-02-11T10:45:57.667Z,32.67
2023-02-11T10:48:56.346Z,33.85
2023-02-11T10:51:31.347Z,32.50
2023-02-11T10:54:03.812Z,44.05
2023-02-11T10:56:40.398Z,34.78
2023-02-11T10:59:41.400Z,34.05
2023-02-11T11:02:31.849Z,34.40
2023-02-11T11:05:07.489Z,32.85
2023-02-11T11:07:34.999Z,30.17
2023-02-11T11:10:14.424Z,29.45
2023-02-11T11:12:54.447Z,29.65
2023-02-11T11:15:33.374Z,29.70
2023-02-11T11:18:24.601Z,30.60
2023-02-11T11:21:09.405Z,29.65
2023-02-11T11:23:36.921Z,28.00
2023-02-11T11:26:21.405Z,31.25
2023-02-11T11:28:53.806Z,31.08
2023-02-11T11:32:01.562Z,29.10
2023-02-11T11:34:44.435Z,30.25
2023-02-11T11:37:14.322Z,29.52
2023-02-11T11:39:47.473Z,30.90
2023-02-11T11:42:49.448Z,29.52
2023-02-11T11:45:22.508Z,30.02
2023-02-11T11:48:00.468Z,34.75
2023-02-11T11:50:36.749Z,30.70
2023-02-11T11:53:22.463Z,28.42
2023-02-11T11:56:00.094Z,28.45
2023-02-11T11:58:35.516Z,29.40
2023-02-11T12:01:09.547Z,31.20
2023-02-11T12:04:04.529Z,29.90
2023-02-11T12:09:40.478Z,27.80
2023-02-11T12:15:08.425Z,27.90
2023-02-11T12:18:06.505Z,28.45
2023-02-11T12:20:47.922Z,26.40
2023-02-11T12:23:20.532Z,27.70
2023-02-11T12:26:05.497Z,31.63
2023-02-11T12:28:37.058Z,29.48
2023-02-11T12:33:54.559Z,29.25
2023-02-11T12:36:40.444Z,31.55
2023-02-11T12:39:44.540Z,30.40
2023-02-11T12:42:42.617Z,27.08
2023-02-11T12:45:33.295Z,26.60
2023-02-11T12:48:33.554Z,29.60
2023-02-11T12:51:44.558Z,28.15
2023-02-11T12:54:35.579Z,30.88
2023-02-11T12:57:28.946Z,27.90
2023-02-11T13:00:13.649Z,23.95
2023-02-11T13:02:51.218Z,27.45
2023-02-11T13:05:33.726Z,28.10
2023-02-11T13:08:22.226Z,28.48
2023-02-11T13:11:05.674Z,28.77
2023-02-11T13:13:38.994Z,31.92
2023-02-11T13:16:26.646Z,33.10
2023-02-11T13:19:14.870Z,27.50
2023-02-11T13:22:17.628Z,29.42
2023-02-11T13:25:03.658Z,24.60
2023-02-11T13:27:47.681Z,25.67
2023-02-11T13:30:32.539Z,23.95
2023-02-11T13:33:07.671Z,26.10
2023-02-11T13:35:37.300Z,24.42
2023-02-11T13:38:25.667Z,25.83
2023-02-11T13:41:05.276Z,26.58
2023-02-11T13:43:40.704Z,28.23
2023-02-11T13:46:11.376Z,28.42
2023-02-11T13:48:51.648Z,27.75
2023-02-11T13:51:34.546Z,30.65
2023-02-11T13:54:07.763Z,27.40
2023-02-11T13:56:40.251Z,24.98
2023-02-11T13:59:33.678Z,27.13
2023-02-11T14:02:18.574Z,25.67
2023-02-11T14:05:46.787Z,26.08
2023-02-11T14:08:38.916Z,25.40
2023-02-11T14:11:18.703Z,25.27
2023-02-11T14:13:54.713Z,21.15
2023-02-11T14:16:36.879Z,25.10
2023-02-11T14:19:10.727Z,25.23
2023-02-11T14:22:23.847Z,22.02
2023-02-11T14:25:11.736Z,22.52
2023-02-11T14:28:03.785Z,21.65
2023-02-11T14:30:51.336Z,21.50
2023-02-11T14:33:48.744Z,22.17
2023-02-11T14:36:22.869Z,21.20
2023-02-11T14:39:28.810Z,29.48
2023-02-11T14:41:55.691Z,21.58
2023-02-11T14:44:37.770Z,22.83
2023-02-11T14:47:05.496Z,20.00
2023-02-11T14:49:36.415Z,22.08
2023-02-11T14:52:23.828Z,24.45
2023-02-11T14:54:51.278Z,23.27
2023-02-11T14:57:20.833Z,23.27
2023-02-11T15:00:08.862Z,20.92
2023-02-11T15:02:38.357Z,22.88
2023-02-11T15:05:26.830Z,23.55
2023-02-11T15:07:55.998Z,22.40
2023-02-11T15:11:03.041Z,21.23
2023-02-11T15:13:36.094Z,22.80
2023-02-11T15:16:15.960Z,21.33
2023-02-11T15:18:49.553Z,23.60
2023-02-11T15:21:37.839Z,22.88
2023-02-11T15:24:21.378Z,21.55
2023-02-11T15:27:07.982Z,20.58
2023-02-11T15:29:40.296Z,21.45
2023-02-11T15:32:19.992Z,24.67
2023-02-11T15:34:48.406Z,24.25
2023-02-11T15:37:30.901Z,24.02
2023-02-11T15:40:09.983Z,23.10
2023-02-11T15:42:52.587Z,21.83
2023-02-11T15:45:19.390Z,23.73
2023-02-11T15:47:58.899Z,22.10
2023-02-11T15:50:34.888Z,19.75
2023-02-11T15:53:12.868Z,21.55
2023-02-11T15:55:49.000Z,25.13
2023-02-11T15:58:15.458Z,22.80
2023-02-11T16:01:06.895Z,22.45
2023-02-11T16:03:39.921Z,25.52
2023-02-11T16:06:28.434Z,24.67
2023-02-11T16:09:10.928Z,24.85
2023-02-11T16:12:00.983Z,24.30
2023-02-11T16:14:33.945Z,24.75
2023-02-11T16:17:10.811Z,24.38
2023-02-11T16:19:51.428Z,22.20
2023-02-11T16:22:32.932Z,19.10
2023-02-11T16:25:06.012Z,20.75
2023-02-11T16:27:45.926Z,21.42
2023-02-11T16:30:27.352Z,23.00
2023-02-11T16:33:01.941Z,27.20
2023-02-11T16:35:28.254Z,25.88
2023-02-11T16:37:55.397Z,23.83
2023-02-11T16:40:30.018Z,24.25
2023-02-11T16:43:03.117Z,22.55
2023-02-11T16:45:29.460Z,24.13
2023-02-11T16:48:03.111Z,27.50
2023-02-11T16:50:29.870Z,26.52
2023-02-11T16:53:03.097Z,26.15
2023-02-11T16:55:29.803Z,25.40
2023-02-11T16:57:56.117Z,23.95
2023-02-11T17:00:30.578Z,23.15
2023-02-11T17:02:57.236Z,26.17
2023-02-11T17:05:25.696Z,27.38
2023-02-11T17:07:59.064Z,29.63
2023-02-11T17:10:45.997Z,26.35
2023-02-11T17:13:19.012Z,29.45
2023-02-11T17:15:52.420Z,22.27
2023-02-11T17:18:19.096Z,24.73
2023-02-11T17:20:46.696Z,24.92
2023-02-11T17:23:20.036Z,27.52
2023-02-11T17:25:46.331Z,30.02
2023-02-11T17:28:12.694Z,27.90
2023-02-11T17:30:48.153Z,28.08
2023-02-11T17:33:14.547Z,26.35
2023-02-11T17:35:42.316Z,29.33
2023-02-11T17:38:15.049Z,29.27
2023-02-11T17:40:41.535Z,31.05
2023-02-11T17:43:14.074Z,26.70
2023-02-11T17:45:41.761Z,25.10
2023-02-11T17:48:15.095Z,23.45
2023-02-11T17:50:41.430Z,28.55
2023-02-11T17:53:07.819Z,225.30
2023-02-11T17:55:42.100Z,26.58
2023-02-11T17:58:08.431Z,23.88
2023-02-11T18:00:34.872Z,27.20
2023-02-11T18:03:10.150Z,113.65
2023-02-11T18:05:36.994Z,30.33
2023-02-11T18:08:07.841Z,26.00
2023-02-11T18:10:42.192Z,21.30
2023-02-11T18:13:15.458Z,20.98
2023-02-11T18:15:41.813Z,24.60
2023-02-11T18:18:16.232Z,27.70
2023-02-11T18:20:43.169Z,31.75
2023-02-11T18:23:10.272Z,26.33
2023-02-11T18:25:45.171Z,26.20
2023-02-11T18:28:11.545Z,26.67
2023-02-11T18:30:44.333Z,29.70
2023-02-11T18:33:20.190Z,25.35
2023-02-11T18:40:50.439Z,26.20
2023-02-11T18:43:24.193Z,29.67
2023-02-11T18:45:51.249Z,23.83
2023-02-11T18:48:18.839Z,26.33
2023-02-11T18:50:53.303Z,18.98
2023-02-11T18:53:20.041Z,20.23
2023-02-11T18:55:47.401Z,23.83
2023-02-11T18:58:21.369Z,27.23
2023-02-11T19:00:49.332Z,25.20
2023-02-11T19:03:16.220Z,29.15
2023-02-11T19:05:54.508Z,50.25
2023-02-11T19:08:27.233Z,36.90
2023-02-11T19:11:00.281Z,24.23
2023-02-11T19:13:35.261Z,28.13
2023-02-11T19:16:05.733Z,25.05
2023-02-11T19:18:32.105Z,36.72
2023-02-11T19:21:06.274Z,27.88
2023-02-11T19:23:42.236Z,28.05
2023-02-11T19:26:15.258Z,84.38
2023-02-11T19:28:41.593Z,29.13
2023-02-11T19:31:08.895Z,50.72
2023-02-11T19:33:42.370Z,28.73
2023-02-11T19:36:11.644Z,30.85
2023-02-11T19:38:44.317Z,33.92
2023-02-11T19:41:12.113Z,33.40
2023-02-11T19:43:49.331Z,38.65
2023-02-11T19:46:16.038Z,38.83
2023-02-11T19:48:42.403Z,28.73
2023-02-11T19:51:17.335Z,37.25
2023-02-11T19:53:44.411Z,47.60
2023-02-11T19:56:12.571Z,34.55
2023-02-11T19:58:46.547Z,157.27
2023-02-11T20:01:18.247Z,182.98
2023-02-11T20:03:55.430Z,84.18
2023-02-11T20:06:24.957Z,38.05
2023-02-11T20:09:06.418Z,99.97
2023-02-11T20:11:56.343Z,238.25
2023-02-11T20:14:29.355Z,31.75
2023-02-11T20:16:55.701Z,32.97
2023-02-11T20:19:28.389Z,37.40
2023-02-11T20:21:55.669Z,35.85
2023-02-11T20:24:30.406Z,32.03
2023-02-11T20:26:56.793Z,34.13
2023-02-11T20:29:23.948Z,33.88
2023-02-11T20:31:58.619Z,36.10
2023-02-11T20:34:31.619Z,41.00
2023-02-11T20:37:04.490Z,43.83
2023-02-11T20:39:37.370Z,40.35
2023-02-11T20:42:10.383Z,41.80
2023-02-11T20:44:37.123Z,38.17
2023-02-11T20:47:10.414Z,38.75
2023-02-11T20:49:50.400Z,42.33
2023-02-11T20:52:23.436Z,42.42
2023-02-11T20:54:49.772Z,41.10
2023-02-11T20:57:22.436Z,38.55
2023-02-11T20:59:49.118Z,46.72
2023-02-11T21:02:15.416Z,37.22
2023-02-11T21:04:48.450Z,34.33
2023-02-11T21:07:21.417Z,36.42
2023-02-11T21:09:47.777Z,34.92
2023-02-11T21:12:27.427Z,39.22
2023-02-11T21:15:02.310Z,37.58
2023-02-11T21:17:35.447Z,43.83
2023-02-11T21:20:01.858Z,36.65
2023-02-11T21:22:34.496Z,39.78
2023-02-11T21:25:03.725Z,32.08
2023-02-11T21:27:39.508Z,33.97
2023-02-11T21:30:07.140Z,38.08
2023-02-11T21:32:33.451Z,59.13
2023-02-11T21:35:06.497Z,42.80
2023-02-11T21:37:34.247Z,39.72
2023-02-11T21:40:08.481Z,44.90
2023-02-11T21:42:35.440Z,46.03
2023-02-11T21:45:08.529Z,41.08
2023-02-11T21:47:34.938Z,48.92
2023-02-11T21:50:01.367Z,46.13
2023-02-11T21:52:34.620Z,43.15
2023-02-11T21:55:00.896Z,40.95
2023-02-11T21:57:33.586Z,39.40
2023-02-11T21:59:59.870Z,40.42
2023-02-11T22:02:33.591Z,40.08
2023-02-11T22:05:00.026Z,40.30
2023-02-11T22:07:34.551Z,42.28
2023-02-11T22:10:07.550Z,39.03
2023-02-11T22:12:48.573Z,37.05
2023-02-11T22:15:17.835Z,43.28
2023-02-11T22:17:50.561Z,47.42
2023-02-11T22:20:17.434Z,41.88
2023-02-11T22:22:50.597Z,39.22
2023-02-11T22:25:17.650Z,42.08
2023-02-11T22:27:50.587Z,50.63
2023-02-11T22:30:23.585Z,49.55
2023-02-11T22:32:56.614Z,46.33
2023-02-11T22:35:22.909Z,68.13
2023-02-11T22:37:55.596Z,62.00
2023-02-11T22:40:23.252Z,43.42
2023-02-11T22:42:55.596Z,38.63
2023-02-11T22:45:21.924Z,53.67
2023-02-11T22:47:54.633Z,54.83
2023-02-11T22:50:20.912Z,47.30
2023-02-11T22:52:47.185Z,56.55
2023-02-11T22:55:19.638Z,40.25
2023-02-11T22:57:52.689Z,38.60
2023-02-11T23:00:20.707Z,33.80
2023-02-11T23:02:47.220Z,34.55
2023-02-11T23:05:20.613Z,36.67
2023-02-11T23:07:49.786Z,32.58
2023-02-11T23:10:22.631Z,36.28
2023-02-11T23:12:55.906Z,33.05
2023-02-11T23:15:28.647Z,37.83
2023-02-11T23:17:55.192Z,40.78
2023-02-11T23:20:28.684Z,39.65
2023-02-11T23:22:56.613Z,48.17
2023-02-11T23:25:29.677Z,47.63
2023-02-11T23:27:56.359Z,46.22
2023-02-11T23:30:29.689Z,38.13
2023-02-11T23:32:56.037Z,40.03
2023-02-11T23:35:29.718Z,38.75
2023-02-11T23:38:02.713Z,38.00
2023-02-11T23:40:29.093Z,58.95
2023-02-11T23:42:55.434Z,44.05
2023-02-11T23:45:28.738Z,31.33
2023-02-11T23:48:02.718Z,26.23
2023-02-11T23:50:35.698Z,42.45
2023-02-11T23:53:08.755Z,42.90
2023-02-11T23:55:39.774Z,40.20
2023-02-11T23:58:06.170Z,45.33
